DBR419 KLVK-KSNA
Flight info
| Callsign | DBR419 |
|---|---|
| Flight time | 1h 2m |
| Altitude | 33000 |
| Route | LVK3 ALTAM PXN RDHOT OHSEA3 |
| Aircraft | CL30/M-SDE3FGJ4P2RWXY/SD1 |
Departure
| Time | 2026-05-07 23:23 |
|---|---|
| Airport | Livermore Municipal Airport (KLVK) |
Arrival
| Time | 2026-05-08 00:26 |
|---|---|
| Airport | John Wayne Orange County International Airport (KSNA) |
| Time | Latitude | Longitude | Altitude | Speed | Heading |
|---|---|---|---|---|---|
| 2026-05-07 23:15 | 37.69617 | -121.81516 | 408 ft | 0 kts | 269° |
| 2026-05-07 23:19 | 37.69617 | -121.81523 | 408 ft | 3 kts | 269° |
| 2026-05-07 23:19 | 37.69598 | -121.81538 | 408 ft | 5 kts | 176° |
| 2026-05-07 23:19 | 37.69577 | -121.81579 | 408 ft | 7 kts | 249° |
| 2026-05-07 23:20 | 37.69525 | -121.81587 | 408 ft | 10 kts | 178° |
| 2026-05-07 23:20 | 37.69455 | -121.81579 | 408 ft | 6 kts | 135° |
| 2026-05-07 23:20 | 37.69448 | -121.81507 | 408 ft | 10 kts | 90° |
| 2026-05-07 23:20 | 37.69447 | -121.81399 | 408 ft | 14 kts | 90° |
| 2026-05-07 23:21 | 37.69446 | -121.81279 | 408 ft | 13 kts | 90° |
| 2026-05-07 23:21 | 37.69446 | -121.81163 | 408 ft | 13 kts | 91° |
| 2026-05-07 23:21 | 37.69418 | -121.81137 | 408 ft | 0 kts | 180° |
| 2026-05-07 23:22 | 37.69403 | -121.81138 | 408 ft | 6 kts | 180° |
| 2026-05-07 23:22 | 37.69379 | -121.81154 | 408 ft | 3 kts | 270° |
| 2026-05-07 23:22 | 37.69379 | -121.81198 | 408 ft | 22 kts | 270° |
| 2026-05-07 23:23 | 37.69382 | -121.81820 | 408 ft | 125 kts | 270° |
| 2026-05-07 23:23 | 37.69394 | -121.83265 | 869 ft | 195 kts | 271° |
| 2026-05-07 23:23 | 37.69423 | -121.85028 | 1398 ft | 195 kts | 271° |
| 2026-05-07 23:23 | 37.69540 | -121.86731 | 1874 ft | 201 kts | 283° |
| 2026-05-07 23:24 | 37.70332 | -121.88199 | 2377 ft | 210 kts | 318° |
| 2026-05-07 23:24 | 37.71698 | -121.88863 | 2883 ft | 219 kts | 352° |
| 2026-05-07 23:24 | 37.73213 | -121.88470 | 3422 ft | 232 kts | 22° |
| 2026-05-07 23:24 | 37.74750 | -121.87400 | 4062 ft | 260 kts | 31° |
| 2026-05-07 23:25 | 37.76278 | -121.86139 | 4690 ft | 266 kts | 33° |
| 2026-05-07 23:25 | 37.77788 | -121.84789 | 5309 ft | 272 kts | 37° |
| 2026-05-07 23:25 | 37.78972 | -121.82889 | 5947 ft | 280 kts | 60° |
| 2026-05-07 23:25 | 37.79741 | -121.80613 | 6582 ft | 286 kts | 70° |
| 2026-05-07 23:26 | 37.80199 | -121.78149 | 7196 ft | 289 kts | 87° |
| 2026-05-07 23:26 | 37.79813 | -121.75644 | 7830 ft | 294 kts | 114° |
| 2026-05-07 23:26 | 37.78681 | -121.73519 | 8475 ft | 296 kts | 130° |
| 2026-05-07 23:26 | 37.77331 | -121.71530 | 9105 ft | 298 kts | 133° |
| 2026-05-07 23:27 | 37.74481 | -121.67723 | 10372 ft | 306 kts | 140° |
| 2026-05-07 23:27 | 37.72754 | -121.66054 | 11190 ft | 319 kts | 146° |
| 2026-05-07 23:27 | 37.70885 | -121.64457 | 12003 ft | 326 kts | 148° |
| 2026-05-07 23:28 | 37.68979 | -121.62896 | 12802 ft | 331 kts | 148° |
| 2026-05-07 23:28 | 37.67014 | -121.61298 | 13611 ft | 337 kts | 148° |
| 2026-05-07 23:28 | 37.65048 | -121.59686 | 14409 ft | 342 kts | 148° |
| 2026-05-07 23:28 | 37.63058 | -121.58032 | 15208 ft | 347 kts | 147° |
| 2026-05-07 23:29 | 37.61024 | -121.56318 | 16017 ft | 352 kts | 147° |
| 2026-05-07 23:29 | 37.58977 | -121.54569 | 16823 ft | 356 kts | 146° |
| 2026-05-07 23:29 | 37.56934 | -121.52806 | 17620 ft | 361 kts | 146° |
| 2026-05-07 23:29 | 37.54844 | -121.50990 | 18426 ft | 366 kts | 145° |
| 2026-05-07 23:30 | 37.52760 | -121.49167 | 19221 ft | 371 kts | 145° |
| 2026-05-07 23:30 | 37.50627 | -121.47293 | 20025 ft | 375 kts | 144° |
| 2026-05-07 23:30 | 37.48470 | -121.45393 | 20830 ft | 380 kts | 144° |
| 2026-05-07 23:30 | 37.46290 | -121.43468 | 21635 ft | 384 kts | 144° |
| 2026-05-07 23:31 | 37.44112 | -121.41541 | 22432 ft | 387 kts | 144° |
| 2026-05-07 23:31 | 37.42632 | -121.40232 | 22969 ft | 390 kts | 144° |
| 2026-05-07 23:31 | 37.40410 | -121.38266 | 23769 ft | 394 kts | 144° |
| 2026-05-07 23:31 | 37.38138 | -121.36255 | 24579 ft | 398 kts | 144° |
| 2026-05-07 23:32 | 37.35882 | -121.34257 | 25375 ft | 402 kts | 144° |
| 2026-05-07 23:32 | 37.33584 | -121.32223 | 26177 ft | 407 kts | 144° |
| 2026-05-07 23:32 | 37.31251 | -121.30158 | 26983 ft | 410 kts | 144° |
| 2026-05-07 23:32 | 37.28932 | -121.28109 | 27778 ft | 412 kts | 144° |
| 2026-05-07 23:33 | 37.26579 | -121.26030 | 28580 ft | 414 kts | 144° |
| 2026-05-07 23:33 | 37.24207 | -121.23936 | 29387 ft | 414 kts | 144° |
| 2026-05-07 23:33 | 37.21874 | -121.21878 | 30179 ft | 413 kts | 144° |
| 2026-05-07 23:33 | 37.19516 | -121.19802 | 30982 ft | 411 kts | 144° |
| 2026-05-07 23:34 | 37.17177 | -121.17743 | 31782 ft | 409 kts | 144° |
| 2026-05-07 23:34 | 37.14870 | -121.15714 | 32577 ft | 405 kts | 144° |
| 2026-05-07 23:34 | 37.12554 | -121.13679 | 33065 ft | 411 kts | 144° |
| 2026-05-07 23:34 | 37.10154 | -121.11569 | 33091 ft | 427 kts | 144° |
| 2026-05-07 23:35 | 37.07706 | -121.09419 | 33079 ft | 441 kts | 144° |
| 2026-05-07 23:35 | 37.05160 | -121.07184 | 33071 ft | 449 kts | 144° |
| 2026-05-07 23:35 | 37.00005 | -121.02667 | 33063 ft | 456 kts | 144° |
| 2026-05-07 23:36 | 36.94791 | -120.98108 | 33058 ft | 458 kts | 144° |
| 2026-05-07 23:36 | 36.89539 | -120.93524 | 33060 ft | 461 kts | 144° |
| 2026-05-07 23:37 | 36.84285 | -120.88945 | 33066 ft | 461 kts | 144° |
| 2026-05-07 23:37 | 36.79022 | -120.84366 | 33066 ft | 462 kts | 144° |
| 2026-05-07 23:38 | 36.73709 | -120.79823 | 33063 ft | 462 kts | 147° |
| 2026-05-07 23:38 | 36.67925 | -120.76373 | 33065 ft | 464 kts | 158° |
| 2026-05-07 23:39 | 36.61811 | -120.73723 | 33062 ft | 464 kts | 161° |
| 2026-05-07 23:39 | 36.55650 | -120.71404 | 33052 ft | 464 kts | 163° |
| 2026-05-07 23:40 | 36.49473 | -120.69181 | 33045 ft | 464 kts | 163° |
| 2026-05-07 23:40 | 36.43242 | -120.66952 | 33042 ft | 464 kts | 163° |
| 2026-05-07 23:41 | 36.37059 | -120.64722 | 33040 ft | 464 kts | 163° |
| 2026-05-07 23:41 | 36.30885 | -120.62473 | 33049 ft | 463 kts | 162° |
| 2026-05-07 23:42 | 36.24731 | -120.60213 | 33046 ft | 463 kts | 162° |
| 2026-05-07 23:42 | 36.18528 | -120.57924 | 33045 ft | 463 kts | 162° |
| 2026-05-07 23:43 | 36.12381 | -120.55649 | 33046 ft | 462 kts | 162° |
| 2026-05-07 23:43 | 36.06224 | -120.53366 | 33048 ft | 462 kts | 162° |
| 2026-05-07 23:44 | 36.00043 | -120.51074 | 33050 ft | 462 kts | 162° |
| 2026-05-07 23:44 | 35.93887 | -120.48793 | 33054 ft | 462 kts | 162° |
| 2026-05-07 23:45 | 35.87732 | -120.46514 | 33056 ft | 463 kts | 162° |
| 2026-05-07 23:45 | 35.81568 | -120.44235 | 33056 ft | 463 kts | 162° |
| 2026-05-07 23:46 | 35.75407 | -120.41960 | 33055 ft | 463 kts | 162° |
| 2026-05-07 23:46 | 35.69238 | -120.39686 | 33057 ft | 463 kts | 162° |
| 2026-05-07 23:47 | 35.63035 | -120.37399 | 33056 ft | 463 kts | 162° |
| 2026-05-07 23:47 | 35.57271 | -120.34040 | 33058 ft | 462 kts | 147° |
| 2026-05-07 23:48 | 35.52019 | -120.29484 | 33057 ft | 461 kts | 141° |
| 2026-05-07 23:48 | 35.47045 | -120.24533 | 33055 ft | 461 kts | 139° |
| 2026-05-07 23:49 | 35.42140 | -120.19447 | 33054 ft | 461 kts | 138° |
| 2026-05-07 23:49 | 35.37254 | -120.14371 | 33053 ft | 462 kts | 139° |
| 2026-05-07 23:50 | 35.32316 | -120.09295 | 33050 ft | 462 kts | 139° |
| 2026-05-07 23:50 | 35.27382 | -120.04286 | 33051 ft | 463 kts | 139° |
| 2026-05-07 23:51 | 35.22380 | -119.99261 | 33051 ft | 464 kts | 139° |
| 2026-05-07 23:51 | 35.17359 | -119.94260 | 33051 ft | 464 kts | 139° |
| 2026-05-07 23:52 | 35.12349 | -119.89296 | 33041 ft | 465 kts | 139° |
| 2026-05-07 23:52 | 35.07370 | -119.84278 | 33039 ft | 466 kts | 137° |
| 2026-05-07 23:53 | 35.02575 | -119.78906 | 33041 ft | 466 kts | 135° |
| 2026-05-07 23:53 | 34.97948 | -119.73419 | 33039 ft | 466 kts | 134° |
| 2026-05-07 23:54 | 34.93335 | -119.67837 | 33038 ft | 466 kts | 133° |
| 2026-05-07 23:54 | 34.88767 | -119.62284 | 33036 ft | 466 kts | 133° |
| 2026-05-07 23:55 | 34.84167 | -119.56704 | 33037 ft | 466 kts | 133° |
| 2026-05-07 23:55 | 34.79576 | -119.51157 | 33036 ft | 467 kts | 133° |
| 2026-05-07 23:56 | 34.74940 | -119.45580 | 32912 ft | 470 kts | 133° |
| 2026-05-07 23:56 | 34.72606 | -119.42779 | 32506 ft | 471 kts | 134° |
| 2026-05-07 23:56 | 34.70277 | -119.39990 | 32063 ft | 468 kts | 134° |
| 2026-05-07 23:57 | 34.67986 | -119.37252 | 31619 ft | 466 kts | 134° |
| 2026-05-07 23:57 | 34.65669 | -119.34486 | 31166 ft | 463 kts | 134° |
| 2026-05-07 23:57 | 34.63380 | -119.31750 | 30715 ft | 459 kts | 134° |
| 2026-05-07 23:57 | 34.61136 | -119.29063 | 30269 ft | 456 kts | 134° |
| 2026-05-07 23:58 | 34.58879 | -119.26359 | 29817 ft | 453 kts | 134° |
| 2026-05-07 23:58 | 34.56646 | -119.23681 | 29366 ft | 449 kts | 134° |
| 2026-05-07 23:58 | 34.54425 | -119.21016 | 28913 ft | 446 kts | 133° |
| 2026-05-07 23:58 | 34.52245 | -119.18406 | 28467 ft | 443 kts | 134° |
| 2026-05-07 23:59 | 34.50040 | -119.15790 | 28014 ft | 440 kts | 134° |
| 2026-05-07 23:59 | 34.47870 | -119.13234 | 27566 ft | 437 kts | 134° |
| 2026-05-07 23:59 | 34.45683 | -119.10676 | 27113 ft | 434 kts | 134° |
| 2026-05-07 23:59 | 34.43515 | -119.08150 | 26662 ft | 431 kts | 134° |
| 2026-05-08 00:00 | 34.41344 | -119.05637 | 26209 ft | 428 kts | 134° |
| 2026-05-08 00:00 | 34.39224 | -119.03198 | 25764 ft | 425 kts | 134° |
| 2026-05-08 00:00 | 34.37086 | -119.00747 | 25313 ft | 422 kts | 134° |
| 2026-05-08 00:00 | 34.34954 | -118.98311 | 24861 ft | 419 kts | 134° |
| 2026-05-08 00:01 | 34.32836 | -118.95895 | 24409 ft | 416 kts | 134° |
| 2026-05-08 00:01 | 34.30737 | -118.93504 | 23958 ft | 413 kts | 134° |
| 2026-05-08 00:01 | 34.28650 | -118.91129 | 23506 ft | 410 kts | 134° |
| 2026-05-08 00:01 | 34.26601 | -118.88798 | 23060 ft | 407 kts | 134° |
| 2026-05-08 00:02 | 34.24464 | -118.86562 | 22607 ft | 406 kts | 140° |
| 2026-05-08 00:02 | 34.22091 | -118.84700 | 22158 ft | 405 kts | 148° |
| 2026-05-08 00:02 | 34.19600 | -118.83184 | 21714 ft | 404 kts | 153° |
| 2026-05-08 00:02 | 34.16991 | -118.81902 | 21265 ft | 402 kts | 157° |
| 2026-05-08 00:03 | 34.14348 | -118.80809 | 20838 ft | 399 kts | 160° |
| 2026-05-08 00:03 | 34.11697 | -118.79845 | 20437 ft | 396 kts | 162° |
| 2026-05-08 00:03 | 34.09091 | -118.78920 | 20041 ft | 393 kts | 162° |
| 2026-05-08 00:03 | 34.06463 | -118.77974 | 19638 ft | 391 kts | 161° |
| 2026-05-08 00:04 | 34.03866 | -118.77024 | 19225 ft | 388 kts | 161° |
| 2026-05-08 00:04 | 34.01296 | -118.76068 | 18781 ft | 385 kts | 161° |
| 2026-05-08 00:04 | 33.98779 | -118.75119 | 18336 ft | 379 kts | 160° |
| 2026-05-08 00:04 | 33.96282 | -118.74169 | 17882 ft | 370 kts | 160° |
| 2026-05-08 00:05 | 33.93853 | -118.73235 | 17430 ft | 363 kts | 160° |
| 2026-05-08 00:05 | 33.91491 | -118.72323 | 16983 ft | 357 kts | 160° |
| 2026-05-08 00:05 | 33.89133 | -118.71411 | 16530 ft | 353 kts | 160° |
| 2026-05-08 00:05 | 33.86809 | -118.70510 | 16079 ft | 349 kts | 160° |
| 2026-05-08 00:06 | 33.84503 | -118.69617 | 15626 ft | 345 kts | 160° |
| 2026-05-08 00:06 | 33.82222 | -118.68733 | 15174 ft | 342 kts | 160° |
| 2026-05-08 00:06 | 33.79996 | -118.67872 | 14729 ft | 338 kts | 160° |
| 2026-05-08 00:06 | 33.77740 | -118.67037 | 14277 ft | 340 kts | 162° |
| 2026-05-08 00:07 | 33.75424 | -118.66347 | 13827 ft | 343 kts | 165° |
| 2026-05-08 00:07 | 33.73068 | -118.65789 | 13381 ft | 345 kts | 168° |
| 2026-05-08 00:07 | 33.70717 | -118.65338 | 12935 ft | 346 kts | 169° |
| 2026-05-08 00:07 | 33.68327 | -118.64957 | 12484 ft | 345 kts | 171° |
| 2026-05-08 00:08 | 33.65942 | -118.64628 | 12033 ft | 343 kts | 172° |
| 2026-05-08 00:08 | 33.63570 | -118.64323 | 11580 ft | 341 kts | 171° |
| 2026-05-08 00:08 | 33.61355 | -118.63489 | 11126 ft | 337 kts | 152° |
| 2026-05-08 00:08 | 33.59468 | -118.61851 | 10685 ft | 334 kts | 136° |
| 2026-05-08 00:09 | 33.57933 | -118.59794 | 10239 ft | 326 kts | 127° |
| 2026-05-08 00:09 | 33.56698 | -118.57585 | 9789 ft | 310 kts | 121° |
| 2026-05-08 00:09 | 33.55674 | -118.55352 | 9338 ft | 299 kts | 117° |
| 2026-05-08 00:09 | 33.54792 | -118.53182 | 9114 ft | 287 kts | 115° |
| 2026-05-08 00:10 | 33.53959 | -118.51034 | 9045 ft | 281 kts | 114° |
| 2026-05-08 00:10 | 33.53198 | -118.48869 | 8825 ft | 284 kts | 110° |
| 2026-05-08 00:10 | 33.52647 | -118.46591 | 8452 ft | 285 kts | 103° |
| 2026-05-08 00:10 | 33.52284 | -118.44256 | 8062 ft | 283 kts | 98° |
| 2026-05-08 00:11 | 33.52065 | -118.41922 | 7664 ft | 281 kts | 95° |
| 2026-05-08 00:11 | 33.51941 | -118.39621 | 7268 ft | 278 kts | 92° |
| 2026-05-08 00:11 | 33.51876 | -118.37325 | 7090 ft | 272 kts | 91° |
| 2026-05-08 00:11 | 33.51984 | -118.35070 | 7020 ft | 269 kts | 83° |
| 2026-05-08 00:12 | 33.52309 | -118.32858 | 7003 ft | 269 kts | 77° |
| 2026-05-08 00:12 | 33.52782 | -118.30689 | 6999 ft | 269 kts | 73° |
| 2026-05-08 00:12 | 33.53343 | -118.28574 | 6995 ft | 270 kts | 71° |
| 2026-05-08 00:12 | 33.53972 | -118.26437 | 6994 ft | 272 kts | 68° |
| 2026-05-08 00:13 | 33.54643 | -118.24290 | 6996 ft | 275 kts | 67° |
| 2026-05-08 00:13 | 33.55325 | -118.22179 | 6991 ft | 270 kts | 66° |
| 2026-05-08 00:13 | 33.56034 | -118.20154 | 6984 ft | 257 kts | 63° |
| 2026-05-08 00:13 | 33.56830 | -118.18269 | 6983 ft | 249 kts | 59° |
| 2026-05-08 00:14 | 33.57685 | -118.16462 | 6767 ft | 251 kts | 57° |
| 2026-05-08 00:14 | 33.58585 | -118.14687 | 6373 ft | 251 kts | 55° |
| 2026-05-08 00:14 | 33.59525 | -118.12912 | 5969 ft | 249 kts | 54° |
| 2026-05-08 00:14 | 33.60470 | -118.11171 | 5568 ft | 248 kts | 54° |
| 2026-05-08 00:15 | 33.61409 | -118.09465 | 5172 ft | 247 kts | 54° |
| 2026-05-08 00:15 | 33.62359 | -118.07752 | 4771 ft | 245 kts | 54° |
| 2026-05-08 00:15 | 33.63309 | -118.06042 | 4369 ft | 244 kts | 54° |
| 2026-05-08 00:15 | 33.64241 | -118.04369 | 3973 ft | 243 kts | 55° |
| 2026-05-08 00:16 | 33.65183 | -118.02675 | 3571 ft | 242 kts | 55° |
| 2026-05-08 00:16 | 33.66116 | -118.00998 | 3176 ft | 241 kts | 56° |
| 2026-05-08 00:16 | 33.67016 | -117.99377 | 3029 ft | 231 kts | 56° |
| 2026-05-08 00:16 | 33.67886 | -117.97807 | 2973 ft | 222 kts | 56° |
| 2026-05-08 00:17 | 33.68724 | -117.96280 | 2992 ft | 217 kts | 57° |
| 2026-05-08 00:17 | 33.69737 | -117.94959 | 3007 ft | 216 kts | 37° |
| 2026-05-08 00:17 | 33.70988 | -117.93939 | 3015 ft | 217 kts | 31° |
| 2026-05-08 00:17 | 33.72292 | -117.92999 | 3006 ft | 218 kts | 29° |
| 2026-05-08 00:18 | 33.73576 | -117.92087 | 3001 ft | 217 kts | 30° |
| 2026-05-08 00:18 | 33.74850 | -117.91101 | 3005 ft | 217 kts | 32° |
| 2026-05-08 00:18 | 33.76114 | -117.90093 | 3004 ft | 217 kts | 32° |
| 2026-05-08 00:18 | 33.77357 | -117.89094 | 3008 ft | 218 kts | 33° |
| 2026-05-08 00:19 | 33.78616 | -117.88079 | 2999 ft | 217 kts | 33° |
| 2026-05-08 00:19 | 33.79869 | -117.87071 | 2998 ft | 217 kts | 33° |
| 2026-05-08 00:19 | 33.81130 | -117.86056 | 3002 ft | 217 kts | 33° |
| 2026-05-08 00:19 | 33.82392 | -117.85037 | 3003 ft | 218 kts | 33° |
| 2026-05-08 00:20 | 33.83372 | -117.83738 | 3018 ft | 204 kts | 62° |
| 2026-05-08 00:20 | 33.83564 | -117.82167 | 3034 ft | 184 kts | 95° |
| 2026-05-08 00:20 | 33.83377 | -117.80647 | 3015 ft | 183 kts | 102° |
| 2026-05-08 00:20 | 33.83141 | -117.79156 | 3001 ft | 180 kts | 102° |
| 2026-05-08 00:21 | 33.82957 | -117.78187 | 2989 ft | 178 kts | 108° |
| 2026-05-08 00:21 | 33.81837 | -117.76867 | 2923 ft | 177 kts | 162° |
| 2026-05-08 00:21 | 33.80633 | -117.76933 | 2828 ft | 174 kts | 198° |
| 2026-05-08 00:21 | 33.79894 | -117.77305 | 2736 ft | 173 kts | 209° |
| 2026-05-08 00:22 | 33.78683 | -117.78423 | 2622 ft | 155 kts | 222° |
| 2026-05-08 00:22 | 33.77893 | -117.79256 | 2479 ft | 147 kts | 223° |
| 2026-05-08 00:22 | 33.77384 | -117.79796 | 2382 ft | 142 kts | 223° |
| 2026-05-08 00:22 | 33.76656 | -117.80571 | 2206 ft | 139 kts | 223° |
| 2026-05-08 00:23 | 33.75936 | -117.81341 | 2003 ft | 137 kts | 223° |
| 2026-05-08 00:23 | 33.75201 | -117.82054 | 1798 ft | 135 kts | 216° |
| 2026-05-08 00:23 | 33.74414 | -117.82627 | 1604 ft | 133 kts | 211° |
| 2026-05-08 00:23 | 33.73602 | -117.83159 | 1408 ft | 132 kts | 210° |
| 2026-05-08 00:24 | 33.72770 | -117.83633 | 1195 ft | 134 kts | 205° |
| 2026-05-08 00:24 | 33.71938 | -117.84090 | 995 ft | 128 kts | 206° |
| 2026-05-08 00:24 | 33.71149 | -117.84581 | 776 ft | 127 kts | 209° |
| 2026-05-08 00:24 | 33.70382 | -117.85085 | 568 ft | 126 kts | 210° |
| 2026-05-08 00:25 | 33.69612 | -117.85594 | 400 ft | 128 kts | 208° |
| 2026-05-08 00:25 | 33.68816 | -117.86094 | 235 ft | 132 kts | 208° |
| 2026-05-08 00:25 | 33.68028 | -117.86594 | 77 ft | 118 kts | 208° |
| 2026-05-08 00:25 | 33.67411 | -117.86985 | 64 ft | 80 kts | 208° |
| 2026-05-08 00:26 | 33.67116 | -117.87171 | 64 ft | 32 kts | 207° |
| 2026-05-08 00:26 | 33.66962 | -117.87267 | 64 ft | 14 kts | 201° |
| 2026-05-08 00:26 | 33.66918 | -117.87226 | 64 ft | 11 kts | 123° |
| 2026-05-08 00:26 | 33.66871 | -117.87162 | 64 ft | 8 kts | 187° |
| 2026-05-08 00:27 | 33.66829 | -117.87200 | 64 ft | 8 kts | 219° |
| 2026-05-08 00:27 | 33.66783 | -117.87243 | 64 ft | 9 kts | 216° |
| 2026-05-08 00:27 | 33.66730 | -117.87287 | 64 ft | 10 kts | 210° |
| 2026-05-08 00:27 | 33.66696 | -117.87260 | 64 ft | 6 kts | 125° |
| 2026-05-08 00:28 | 33.66675 | -117.87233 | 64 ft | 2 kts | 183° |
| 2026-05-08 00:28 | 33.66664 | -117.87241 | 64 ft | 0 kts | 216° |
| 2026-05-08 00:28 | 33.66663 | -117.87241 | 64 ft | 0 kts | 216° |